sensor_id;sensor_type;location;lat;lon;timestamp;pressure;altitude;pressure_sealevel;temperature;humidity
69630;BME280;56857;52.212;5.496;2022-10-16T00:01:30;100962.22;;;11.82;100.00
69630;BME280;56857;52.212;5.496;2022-10-16T00:03:58;100956.06;;;11.82;100.00
69630;BME280;56857;52.212;5.496;2022-10-16T00:06:24;100959.56;;;11.82;100.00
69630;BME280;56857;52.212;5.496;2022-10-16T00:08:50;100950.75;;;11.82;100.00
69630;BME280;56857;52.212;5.496;2022-10-16T00:11:21;100959.72;;;11.81;100.00
69630;BME280;56857;52.212;5.496;2022-10-16T00:13:48;100952.59;;;11.81;100.00
69630;BME280;56857;52.212;5.496;2022-10-16T00:16:16;100953.59;;;11.80;100.00
69630;BME280;56857;52.212;5.496;2022-10-16T00:18:42;100962.56;;;11.79;100.00
69630;BME280;56857;52.212;5.496;2022-10-16T00:21:10;100961.56;;;11.80;100.00
69630;BME280;56857;52.212;5.496;2022-10-16T00:23:36;100970.69;;;11.78;100.00
69630;BME280;56857;52.212;5.496;2022-10-16T00:26:05;100969.69;;;11.79;100.00
69630;BME280;56857;52.212;5.496;2022-10-16T00:28:31;100976.84;;;11.78;100.00
69630;BME280;56857;52.212;5.496;2022-10-16T00:30:56;100977.84;;;11.77;100.00
69630;BME280;56857;52.212;5.496;2022-10-16T00:33:22;100977.03;;;11.77;100.00
69630;BME280;56857;52.212;5.496;2022-10-16T00:35:48;100976.19;;;11.76;100.00
69630;BME280;56857;52.212;5.496;2022-10-16T00:38:13;100968.22;;;11.76;100.00
69630;BME280;56857;52.212;5.496;2022-10-16T00:40:39;100962.91;;;11.76;100.00
69630;BME280;56857;52.212;5.496;2022-10-16T00:43:12;100952.28;;;11.76;100.00
69630;BME280;56857;52.212;5.496;2022-10-16T00:45:38;100960.25;;;11.76;100.00
69630;BME280;56857;52.212;5.496;2022-10-16T00:48:03;100952.44;;;11.75;100.00
69630;BME280;56857;52.212;5.496;2022-10-16T00:50:33;100958.59;;;11.75;100.00
69630;BME280;56857;52.212;5.496;2022-10-16T00:53:01;100962.25;;;11.74;100.00
69630;BME280;56857;52.212;5.496;2022-10-16T00:55:27;100957.78;;;11.75;100.00
69630;BME280;56857;52.212;5.496;2022-10-16T00:57:53;100971.88;;;11.75;100.00
69630;BME280;56857;52.212;5.496;2022-10-16T01:00:21;100963.91;;;11.75;100.00
69630;BME280;56857;52.212;5.496;2022-10-16T01:02:55;100958.44;;;11.77;100.00
69630;BME280;56857;52.212;5.496;2022-10-16T01:05:23;100961.91;;;11.77;100.00
69630;BME280;56857;52.212;5.496;2022-10-16T01:10:38;100965.03;;;11.81;100.00
69630;BME280;56857;52.212;5.496;2022-10-16T01:13:09;100965.88;;;11.81;100.00
69630;BME280;56857;52.212;5.496;2022-10-16T01:15:42;100975.50;;;11.82;100.00
69630;BME280;56857;52.212;5.496;2022-10-16T01:18:21;100975.31;;;11.84;100.00
69630;BME280;56857;52.212;5.496;2022-10-16T01:21:05;100969.88;;;11.86;100.00
69630;BME280;56857;52.212;5.496;2022-10-16T01:31:18;100960.19;;;11.93;100.00
69630;BME280;56857;52.212;5.496;2022-10-16T01:33:57;100978.09;;;11.99;100.00
69630;BME280;56857;52.212;5.496;2022-10-16T01:36:30;100961.81;;;12.02;100.00
69630;BME280;56857;52.212;5.496;2022-10-16T01:39:00;100969.44;;;12.05;100.00
69630;BME280;56857;52.212;5.496;2022-10-16T01:41:33;100967.41;;;12.07;100.00
69630;BME280;56857;52.212;5.496;2022-10-16T01:44:03;100969.91;;;12.09;100.00
69630;BME280;56857;52.212;5.496;2022-10-16T01:46:31;100980.34;;;12.10;100.00
69630;BME280;56857;52.212;5.496;2022-10-16T01:48:57;100980.34;;;12.10;100.00
69630;BME280;56857;52.212;5.496;2022-10-16T01:51:24;100977.53;;;12.12;100.00
69630;BME280;56857;52.212;5.496;2022-10-16T01:53:53;100972.19;;;12.12;100.00
69630;BME280;56857;52.212;5.496;2022-10-16T01:56:21;100972.88;;;12.14;100.00
69630;BME280;56857;52.212;5.496;2022-10-16T01:58:53;100979.81;;;12.15;100.00
69630;BME280;56857;52.212;5.496;2022-10-16T02:01:22;100979.81;;;12.15;100.00
69630;BME280;56857;52.212;5.496;2022-10-16T02:03:51;100972.47;;;12.17;100.00
69630;BME280;56857;52.212;5.496;2022-10-16T02:06:18;100952.91;;;12.18;100.00
69630;BME280;56857;52.212;5.496;2022-10-16T02:08:43;100947.38;;;12.19;100.00
69630;BME280;56857;52.212;5.496;2022-10-16T02:11:09;100942.91;;;12.20;100.00
69630;BME280;56857;52.212;5.496;2022-10-16T02:14:01;100945.75;;;12.18;100.00
69630;BME280;56857;52.212;5.496;2022-10-16T02:16:38;100956.38;;;12.18;100.00
69630;BME280;56857;52.212;5.496;2022-10-16T02:19:05;100963.34;;;12.19;100.00
69630;BME280;56857;52.212;5.496;2022-10-16T02:21:51;100971.31;;;12.19;100.00
69630;BME280;56857;52.212;5.496;2022-10-16T02:29:43;100972.97;;;12.20;100.00
69630;BME280;56857;52.212;5.496;2022-10-16T02:32:12;100981.78;;;12.21;100.00
69630;BME280;56857;52.212;5.496;2022-10-16T02:34:40;100983.63;;;12.20;100.00
69630;BME280;56857;52.212;5.496;2022-10-16T02:37:06;100987.09;;;12.21;100.00
69630;BME280;56857;52.212;5.496;2022-10-16T02:39:33;100989.09;;;12.19;100.00
69630;BME280;56857;52.212;5.496;2022-10-16T02:41:58;100980.97;;;12.20;100.00
69630;BME280;56857;52.212;5.496;2022-10-16T02:44:24;100991.59;;;12.20;100.00
69630;BME280;56857;52.212;5.496;2022-10-16T02:46:49;100993.59;;;12.18;100.00
69630;BME280;56857;52.212;5.496;2022-10-16T02:49:15;100997.25;;;12.17;100.00
69630;BME280;56857;52.212;5.496;2022-10-16T02:51:40;100994.75;;;12.16;100.00
69630;BME280;56857;52.212;5.496;2022-10-16T02:54:05;100996.59;;;12.15;100.00
69630;BME280;56857;52.212;5.496;2022-10-16T02:56:31;101001.91;;;12.15;100.00
69630;BME280;56857;52.212;5.496;2022-10-16T02:58:56;101001.09;;;12.15;100.00
69630;BME280;56857;52.212;5.496;2022-10-16T03:01:22;101004.56;;;12.15;100.00
69630;BME280;56857;52.212;5.496;2022-10-16T03:03:48;100995.94;;;12.13;100.00
69630;BME280;56857;52.212;5.496;2022-10-16T03:06:13;101000.63;;;12.11;100.00
69630;BME280;56857;52.212;5.496;2022-10-16T03:08:38;101006.56;;;12.13;100.00
69630;BME280;56857;52.212;5.496;2022-10-16T03:11:04;100998.59;;;12.13;100.00
69630;BME280;56857;52.212;5.496;2022-10-16T03:13:29;100995.09;;;12.13;100.00
69630;BME280;56857;52.212;5.496;2022-10-16T03:15:54;100991.81;;;12.11;100.00
69630;BME280;56857;52.212;5.496;2022-10-16T03:18:20;100989.16;;;12.11;100.00
69630;BME280;56857;52.212;5.496;2022-10-16T03:20:45;100983.00;;;12.10;100.00
69630;BME280;56857;52.212;5.496;2022-10-16T03:23:11;100986.50;;;12.11;100.00
69630;BME280;56857;52.212;5.496;2022-10-16T03:25:36;100980.34;;;12.10;100.00
69630;BME280;56857;52.212;5.496;2022-10-16T03:28:01;100984.81;;;12.10;100.00
69630;BME280;56857;52.212;5.496;2022-10-16T03:30:27;100999.94;;;12.09;100.00
69630;BME280;56857;52.212;5.496;2022-10-16T03:32:52;100996.63;;;12.07;100.00
69630;BME280;56857;52.212;5.496;2022-10-16T03:35:18;101002.78;;;12.08;100.00
69630;BME280;56857;52.212;5.496;2022-10-16T03:37:43;101006.63;;;12.05;100.00
69630;BME280;56857;52.212;5.496;2022-10-16T03:40:08;100995.19;;;12.04;100.00
69630;BME280;56857;52.212;5.496;2022-10-16T03:42:34;101014.94;;;12.02;100.00
69630;BME280;56857;52.212;5.496;2022-10-16T03:44:59;101006.31;;;12.00;100.00
69630;BME280;56857;52.212;5.496;2022-10-16T03:47:24;101011.81;;;11.98;100.00
69630;BME280;56857;52.212;5.496;2022-10-16T03:49:50;101017.94;;;11.99;100.00
69630;BME280;56857;52.212;5.496;2022-10-16T03:52:16;101018.09;;;11.97;100.00
69630;BME280;56857;52.212;5.496;2022-10-16T03:54:41;101019.13;;;11.96;100.00
69630;BME280;56857;52.212;5.496;2022-10-16T03:57:06;101013.13;;;11.94;100.00
69630;BME280;56857;52.212;5.496;2022-10-16T03:59:32;101020.28;;;11.94;100.00
69630;BME280;56857;52.212;5.496;2022-10-16T04:01:57;101017.63;;;11.94;100.00
69630;BME280;56857;52.212;5.496;2022-10-16T04:04:22;101015.78;;;11.94;100.00
69630;BME280;56857;52.212;5.496;2022-10-16T04:06:48;101023.97;;;11.93;100.00
69630;BME280;56857;52.212;5.496;2022-10-16T04:09:13;101022.31;;;11.92;100.00
69630;BME280;56857;52.212;5.496;2022-10-16T04:11:39;101030.28;;;11.92;100.00
69630;BME280;56857;52.212;5.496;2022-10-16T04:14:04;101033.09;;;11.90;100.00
69630;BME280;56857;52.212;5.496;2022-10-16T04:16:30;101032.28;;;11.90;100.00
69630;BME280;56857;52.212;5.496;2022-10-16T04:18:55;101039.41;;;11.89;100.00
69630;BME280;56857;52.212;5.496;2022-10-16T04:21:20;101043.06;;;11.88;100.00
69630;BME280;56857;52.212;5.496;2022-10-16T04:23:45;101040.59;;;11.87;100.00
69630;BME280;56857;52.212;5.496;2022-10-16T04:26:11;101046.06;;;11.85;100.00
69630;BME280;56857;52.212;5.496;2022-10-16T04:28:36;101046.06;;;11.85;100.00
69630;BME280;56857;52.212;5.496;2022-10-16T04:31:06;101067.16;;;11.87;100.00
69630;BME280;56857;52.212;5.496;2022-10-16T04:33:32;101064.66;;;11.85;100.00
69630;BME280;56857;52.212;5.496;2022-10-16T04:35:58;101067.31;;;11.85;100.00
69630;BME280;56857;52.212;5.496;2022-10-16T04:38:24;101074.44;;;11.85;100.00
69630;BME280;56857;52.212;5.496;2022-10-16T04:40:50;101071.94;;;11.83;100.00
69630;BME280;56857;52.212;5.496;2022-10-16T04:43:15;101069.28;;;11.83;100.00
69630;BME280;56857;52.212;5.496;2022-10-16T04:45:40;101076.25;;;11.84;100.00
69630;BME280;56857;52.212;5.496;2022-10-16T04:48:06;101074.59;;;11.83;100.00
69630;BME280;56857;52.212;5.496;2022-10-16T04:50:31;101084.41;;;11.82;100.00
69630;BME280;56857;52.212;5.496;2022-10-16T04:52:56;101088.72;;;11.83;100.00
69630;BME280;56857;52.212;5.496;2022-10-16T04:55:22;101087.06;;;11.82;100.00
69630;BME280;56857;52.212;5.496;2022-10-16T04:57:47;101083.56;;;11.82;100.00
69630;BME280;56857;52.212;5.496;2022-10-16T05:00:13;101102.16;;;11.82;100.00
69630;BME280;56857;52.212;5.496;2022-10-16T05:02:38;101100.34;;;11.82;100.00
69630;BME280;56857;52.212;5.496;2022-10-16T05:05:04;101105.66;;;11.82;100.00
69630;BME280;56857;52.212;5.496;2022-10-16T05:07:29;101113.63;;;11.82;100.00
69630;BME280;56857;52.212;5.496;2022-10-16T05:09:54;101108.47;;;11.81;100.00
69630;BME280;56857;52.212;5.496;2022-10-16T05:12:19;101100.50;;;11.81;100.00
69630;BME280;56857;52.212;5.496;2022-10-16T05:14:45;101108.47;;;11.81;100.00
69630;BME280;56857;52.212;5.496;2022-10-16T05:17:10;101117.44;;;11.80;100.00
69630;BME280;56857;52.212;5.496;2022-10-16T05:19:35;101124.59;;;11.79;100.00
69630;BME280;56857;52.212;5.496;2022-10-16T05:22:01;101122.75;;;11.80;100.00
69630;BME280;56857;52.212;5.496;2022-10-16T05:24:26;101123.72;;;11.79;100.00
69630;BME280;56857;52.212;5.496;2022-10-16T05:26:52;101124.41;;;11.81;100.00
69630;BME280;56857;52.212;5.496;2022-10-16T05:29:17;101138.69;;;11.80;100.00
69630;BME280;56857;52.212;5.496;2022-10-16T05:31:42;101146.66;;;11.80;100.00
69630;BME280;56857;52.212;5.496;2022-10-16T05:34:08;101134.34;;;11.79;100.00
69630;BME280;56857;52.212;5.496;2022-10-16T05:36:33;101146.66;;;11.80;100.00
69630;BME280;56857;52.212;5.496;2022-10-16T05:38:58;101147.47;;;11.80;100.00
69630;BME280;56857;52.212;5.496;2022-10-16T05:41:24;101158.25;;;11.79;100.00
69630;BME280;56857;52.212;5.496;2022-10-16T05:43:49;101155.59;;;11.79;100.00
69630;BME280;56857;52.212;5.496;2022-10-16T05:46:14;101160.75;;;11.80;100.00
69630;BME280;56857;52.212;5.496;2022-10-16T05:48:40;101174.03;;;11.80;100.00
69630;BME280;56857;52.212;5.496;2022-10-16T05:51:06;101169.56;;;11.81;100.00
69630;BME280;56857;52.212;5.496;2022-10-16T05:53:34;101176.53;;;11.82;100.00
69630;BME280;56857;52.212;5.496;2022-10-16T05:56:00;101177.38;;;11.82;100.00
69630;BME280;56857;52.212;5.496;2022-10-16T05:58:29;101185.34;;;11.82;100.00
69630;BME280;56857;52.212;5.496;2022-10-16T06:00:57;101190.47;;;11.84;100.00
69630;BME280;56857;52.212;5.496;2022-10-16T06:03:23;101193.13;;;11.84;100.00
69630;BME280;56857;52.212;5.496;2022-10-16T06:05:48;101200.97;;;11.86;100.00
69630;BME280;56857;52.212;5.496;2022-10-16T06:08:14;101201.81;;;11.86;100.00
69630;BME280;56857;52.212;5.496;2022-10-16T06:10:39;101200.78;;;11.87;100.00
69630;BME280;56857;52.212;5.496;2022-10-16T06:13:04;101200.78;;;11.87;100.00
69630;BME280;56857;52.212;5.496;2022-10-16T06:15:30;101204.13;;;11.89;100.00
69630;BME280;56857;52.212;5.496;2022-10-16T06:17:55;101203.28;;;11.89;100.00
69630;BME280;56857;52.212;5.496;2022-10-16T06:20:20;101206.59;;;11.91;100.00
69630;BME280;56857;52.212;5.496;2022-10-16T06:22:46;101217.22;;;11.91;100.00
69630;BME280;56857;52.212;5.496;2022-10-16T06:25:11;101218.03;;;11.91;100.00
69630;BME280;56857;52.212;5.496;2022-10-16T06:27:39;101217.22;;;11.91;100.00
69630;BME280;56857;52.212;5.496;2022-10-16T06:30:05;101216.25;;;11.92;100.00
69630;BME280;56857;52.212;5.496;2022-10-16T06:32:30;101226.69;;;11.93;100.00
69630;BME280;56857;52.212;5.496;2022-10-16T06:34:56;101239.97;;;11.93;100.00
69630;BME280;56857;52.212;5.496;2022-10-16T06:37:21;101244.28;;;11.94;100.00
69630;BME280;56857;52.212;5.496;2022-10-16T06:39:46;101249.59;;;11.94;100.00
69630;BME280;56857;52.212;5.496;2022-10-16T06:42:12;101246.78;;;11.96;100.00
69630;BME280;56857;52.212;5.496;2022-10-16T06:44:37;101225.53;;;11.96;100.00
69630;BME280;56857;52.212;5.496;2022-10-16T06:47:02;101227.16;;;11.97;100.00
69630;BME280;56857;52.212;5.496;2022-10-16T06:49:27;101239.63;;;11.96;100.00
69630;BME280;56857;52.212;5.496;2022-10-16T06:51:53;101245.75;;;11.97;100.00
69630;BME280;56857;52.212;5.496;2022-10-16T06:54:18;101258.22;;;11.96;100.00
69630;BME280;56857;52.212;5.496;2022-10-16T06:56:43;101249.25;;;11.97;100.00
69630;BME280;56857;52.212;5.496;2022-10-16T06:59:09;101251.91;;;11.97;100.00
69630;BME280;56857;52.212;5.496;2022-10-16T07:01:34;101257.06;;;11.99;100.00
69630;BME280;56857;52.212;5.496;2022-10-16T07:04:00;101252.56;;;11.99;100.00
69630;BME280;56857;52.212;5.496;2022-10-16T07:06:26;101258.56;;;12.01;100.00
69630;BME280;56857;52.212;5.496;2022-10-16T07:08:52;101254.06;;;12.02;100.00
69630;BME280;56857;52.212;5.496;2022-10-16T07:11:20;101264.53;;;12.03;100.00
69630;BME280;56857;52.212;5.496;2022-10-16T07:13:46;101266.34;;;12.03;100.00
69630;BME280;56857;52.212;5.496;2022-10-16T07:16:14;101269.50;;;12.06;100.00
69630;BME280;56857;52.212;5.496;2022-10-16T07:18:41;101276.50;;;12.08;100.00
69630;BME280;56857;52.212;5.496;2022-10-16T07:21:09;101278.81;;;12.11;100.00
69630;BME280;56857;52.212;5.496;2022-10-16T07:23:35;101289.25;;;12.12;100.00
69630;BME280;56857;52.212;5.496;2022-10-16T07:26:00;101301.38;;;12.15;100.00
69630;BME280;56857;52.212;5.496;2022-10-16T07:28:26;101304.53;;;12.18;100.00
69630;BME280;56857;52.212;5.496;2022-10-16T07:30:51;101300.88;;;12.19;100.00
69630;BME280;56857;52.212;5.496;2022-10-16T07:33:17;101307.69;;;12.22;100.00
69630;BME280;56857;52.212;5.496;2022-10-16T07:35:50;101311.66;;;12.26;100.00
69630;BME280;56857;52.212;5.496;2022-10-16T07:38:17;101306.84;;;12.29;100.00
69630;BME280;56857;52.212;5.496;2022-10-16T07:40:42;101311.84;;;12.33;100.00
69630;BME280;56857;52.212;5.496;2022-10-16T07:43:08;101324.75;;;12.36;100.00
69630;BME280;56857;52.212;5.496;2022-10-16T07:45:33;101330.75;;;12.38;100.00
69630;BME280;56857;52.212;5.496;2022-10-16T07:47:58;101335.91;;;12.39;100.00
69630;BME280;56857;52.212;5.496;2022-10-16T07:50:24;101339.41;;;12.40;100.00
69630;BME280;56857;52.212;5.496;2022-10-16T07:52:50;101351.00;;;12.39;100.00
69630;BME280;56857;52.212;5.496;2022-10-16T07:55:16;101355.34;;;12.40;100.00
69630;BME280;56857;52.212;5.496;2022-10-16T07:57:41;101356.50;;;12.37;100.00
69630;BME280;56857;52.212;5.496;2022-10-16T08:00:07;101361.81;;;12.37;100.00
69630;BME280;56857;52.212;5.496;2022-10-16T08:02:33;101351.72;;;12.33;100.00
69630;BME280;56857;52.212;5.496;2022-10-16T08:04:58;101357.03;;;12.33;100.00
69630;BME280;56857;52.212;5.496;2022-10-16T08:07:23;101369.47;;;12.32;100.00
69630;BME280;56857;52.212;5.496;2022-10-16T08:09:49;101373.47;;;12.36;100.00
69630;BME280;56857;52.212;5.496;2022-10-16T08:12:14;101376.78;;;12.38;100.00
69630;BME280;56857;52.212;5.496;2022-10-16T08:14:40;101375.59;;;12.41;100.00
69630;BME280;56857;52.212;5.496;2022-10-16T08:17:06;101381.25;;;12.46;100.00
69630;BME280;56857;52.212;5.496;2022-10-16T08:19:31;101389.72;;;12.49;100.00
69630;BME280;56857;52.212;5.496;2022-10-16T08:21:57;101384.72;;;12.55;100.00
69630;BME280;56857;52.212;5.496;2022-10-16T08:24:22;101394.69;;;12.61;100.00
69630;BME280;56857;52.212;5.496;2022-10-16T08:26:47;101394.34;;;12.64;100.00
69630;BME280;56857;52.212;5.496;2022-10-16T08:29:13;101403.34;;;12.71;100.00
69630;BME280;56857;52.212;5.496;2022-10-16T08:31:39;101404.47;;;12.76;100.00
69630;BME280;56857;52.212;5.496;2022-10-16T08:34:04;101407.28;;;12.83;100.00
69630;BME280;56857;52.212;5.496;2022-10-16T08:36:30;101408.59;;;12.87;100.00
69630;BME280;56857;52.212;5.496;2022-10-16T08:38:55;101409.91;;;12.91;100.00
69630;BME280;56857;52.212;5.496;2022-10-16T08:44:18;101411.06;;;13.05;100.00
69630;BME280;56857;52.212;5.496;2022-10-16T08:49:22;101432.16;;;13.15;100.00
69630;BME280;56857;52.212;5.496;2022-10-16T08:51:48;101431.47;;;13.21;100.00
69630;BME280;56857;52.212;5.496;2022-10-16T08:54:28;101428.31;;;13.26;100.00
69630;BME280;56857;52.212;5.496;2022-10-16T08:56:56;101442.56;;;13.33;100.00
69630;BME280;56857;52.212;5.496;2022-10-16T08:59:22;101439.91;;;13.41;100.00
69630;BME280;56857;52.212;5.496;2022-10-16T09:01:49;101441.03;;;13.47;100.00
69630;BME280;56857;52.212;5.496;2022-10-16T09:04:30;101445.69;;;13.53;100.00
69630;BME280;56857;52.212;5.496;2022-10-16T09:07:06;101449.28;;;13.60;100.00
69630;BME280;56857;52.212;5.496;2022-10-16T09:14:42;101465.84;;;13.78;100.00
69630;BME280;56857;52.212;5.496;2022-10-16T09:19:58;101474.91;;;13.92;100.00
69630;BME280;56857;52.212;5.496;2022-10-16T09:22:28;101474.22;;;13.98;100.00
69630;BME280;56857;52.212;5.496;2022-10-16T09:25:00;101474.19;;;14.06;100.00
69630;BME280;56857;52.212;5.496;2022-10-16T09:27:26;101484.97;;;14.13;100.00
69630;BME280;56857;52.212;5.496;2022-10-16T09:29:51;101488.75;;;14.19;100.00
69630;BME280;56857;52.212;5.496;2022-10-16T09:32:20;101489.03;;;14.24;100.00
69630;BME280;56857;52.212;5.496;2022-10-16T09:34:52;101487.81;;;14.34;100.00
69630;BME280;56857;52.212;5.496;2022-10-16T09:37:20;101497.03;;;14.47;100.00
69630;BME280;56857;52.212;5.496;2022-10-16T09:39:48;101493.16;;;14.57;100.00
69630;BME280;56857;52.212;5.496;2022-10-16T09:42:24;101490.66;;;14.56;100.00
69630;BME280;56857;52.212;5.496;2022-10-16T09:44:53;101497.38;;;14.52;100.00
69630;BME280;56857;52.212;5.496;2022-10-16T09:47:29;101500.19;;;14.50;100.00
69630;BME280;56857;52.212;5.496;2022-10-16T09:49:56;101496.47;;;14.59;100.00
69630;BME280;56857;52.212;5.496;2022-10-16T09:52:23;101499.63;;;14.63;100.00
69630;BME280;56857;52.212;5.496;2022-10-16T09:54:54;101506.06;;;14.69;98.83
69630;BME280;56857;52.212;5.496;2022-10-16T09:57:20;101507.13;;;14.82;98.99
69630;BME280;56857;52.212;5.496;2022-10-16T09:59:51;101509.16;;;14.95;99.14
69630;BME280;56857;52.212;5.496;2022-10-16T10:02:19;101506.59;;;15.02;98.54
69630;BME280;56857;52.212;5.496;2022-10-16T10:04:52;101509.56;;;15.07;97.47
69630;BME280;56857;52.212;5.496;2022-10-16T10:07:24;101508.19;;;15.11;95.80
69630;BME280;56857;52.212;5.496;2022-10-16T10:09:51;101517.47;;;15.15;95.42
69630;BME280;56857;52.212;5.496;2022-10-16T10:12:25;101509.81;;;15.12;94.38
69630;BME280;56857;52.212;5.496;2022-10-16T10:15:17;101509.00;;;15.12;94.62
69630;BME280;56857;52.212;5.496;2022-10-16T10:17:48;101512.50;;;15.12;95.29
69630;BME280;56857;52.212;5.496;2022-10-16T10:20:28;101513.59;;;15.18;94.79
69630;BME280;56857;52.212;5.496;2022-10-16T10:22:55;101516.75;;;15.21;93.19
69630;BME280;56857;52.212;5.496;2022-10-16T10:31:03;101520.34;;;15.14;92.14
69630;BME280;56857;52.212;5.496;2022-10-16T10:33:37;101532.41;;;15.24;92.94
69630;BME280;56857;52.212;5.496;2022-10-16T10:36:16;101534.63;;;15.36;92.58
69630;BME280;56857;52.212;5.496;2022-10-16T10:38:51;101539.88;;;15.44;92.66
69630;BME280;56857;52.212;5.496;2022-10-16T10:41:32;101532.66;;;15.44;91.85
69630;BME280;56857;52.212;5.496;2022-10-16T10:46:45;101544.47;;;15.35;91.46
69630;BME280;56857;52.212;5.496;2022-10-16T10:54:59;101536.47;;;15.50;90.16
69630;BME280;56857;52.212;5.496;2022-10-16T10:57:32;101552.41;;;15.58;90.32
69630;BME280;56857;52.212;5.496;2022-10-16T11:00:20;101558.66;;;15.65;89.15
69630;BME280;56857;52.212;5.496;2022-10-16T11:03:00;101555.47;;;15.70;87.56
69630;BME280;56857;52.212;5.496;2022-10-16T11:05:42;101555.94;;;15.73;87.44
69630;BME280;56857;52.212;5.496;2022-10-16T11:08:22;101562.72;;;15.76;88.66
69630;BME280;56857;52.212;5.496;2022-10-16T11:13:30;101566.66;;;15.95;87.80
69630;BME280;56857;52.212;5.496;2022-10-16T11:16:00;101567.03;;;16.07;87.86
69630;BME280;56857;52.212;5.496;2022-10-16T11:18:44;101571.31;;;16.22;85.56
69630;BME280;56857;52.212;5.496;2022-10-16T11:21:14;101561.44;;;16.23;85.56
69630;BME280;56857;52.212;5.496;2022-10-16T11:24:15;101562.47;;;16.22;86.00
69630;BME280;56857;52.212;5.496;2022-10-16T11:26:46;101569.38;;;16.31;85.82
69630;BME280;56857;52.212;5.496;2022-10-16T11:29:32;101579.50;;;16.36;84.46
69630;BME280;56857;52.212;5.496;2022-10-16T11:32:00;101580.88;;;16.32;82.74
69630;BME280;56857;52.212;5.496;2022-10-16T11:34:39;101578.34;;;16.24;82.81
69630;BME280;56857;52.212;5.496;2022-10-16T11:37:31;101573.75;;;16.17;82.11
69630;BME280;56857;52.212;5.496;2022-10-16T11:40:03;101573.94;;;16.16;82.05
69630;BME280;56857;52.212;5.496;2022-10-16T11:42:41;101584.81;;;16.14;81.80
69630;BME280;56857;52.212;5.496;2022-10-16T11:48:10;101586.78;;;15.91;81.92
69630;BME280;56857;52.212;5.496;2022-10-16T11:50:44;101589.38;;;15.84;81.84
69630;BME280;56857;52.212;5.496;2022-10-16T11:56:13;101595.47;;;15.78;83.17
69630;BME280;56857;52.212;5.496;2022-10-16T12:01:22;101591.47;;;15.89;81.72
69630;BME280;56857;52.212;5.496;2022-10-16T12:07:09;101592.84;;;16.14;80.00
69630;BME280;56857;52.212;5.496;2022-10-16T12:09:39;101594.53;;;16.37;79.73
69630;BME280;56857;52.212;5.496;2022-10-16T12:12:26;101599.44;;;16.55;79.66
69630;BME280;56857;52.212;5.496;2022-10-16T12:15:17;101601.41;;;16.82;79.10
69630;BME280;56857;52.212;5.496;2022-10-16T12:17:43;101601.19;;;17.05;77.62
69630;BME280;56857;52.212;5.496;2022-10-16T12:22:36;101609.91;;;17.14;75.54
69630;BME280;56857;52.212;5.496;2022-10-16T12:25:02;101610.66;;;17.29;75.38
69630;BME280;56857;52.212;5.496;2022-10-16T12:27:31;101616.53;;;17.46;74.54
69630;BME280;56857;52.212;5.496;2022-10-16T12:30:02;101620.25;;;17.45;73.93
69630;BME280;56857;52.212;5.496;2022-10-16T12:32:34;101626.34;;;17.32;73.17
69630;BME280;56857;52.212;5.496;2022-10-16T12:35:01;101628.88;;;17.12;73.37
69630;BME280;56857;52.212;5.496;2022-10-16T12:37:35;101623.78;;;16.96;73.87
69630;BME280;56857;52.212;5.496;2022-10-16T12:40:13;101623.41;;;16.99;72.46
69630;BME280;56857;52.212;5.496;2022-10-16T12:42:40;101626.00;;;17.14;72.06
69630;BME280;56857;52.212;5.496;2022-10-16T12:45:41;101625.81;;;17.16;73.15
69630;BME280;56857;52.212;5.496;2022-10-16T12:48:20;101619.53;;;17.30;73.98
69630;BME280;56857;52.212;5.496;2022-10-16T12:50:45;101616.34;;;17.48;72.75
69630;BME280;56857;52.212;5.496;2022-10-16T12:53:22;101623.44;;;17.62;72.41
69630;BME280;56857;52.212;5.496;2022-10-16T12:59:04;101628.59;;;17.85;71.84
69630;BME280;56857;52.212;5.496;2022-10-16T13:01:41;101629.84;;;17.89;71.32
69630;BME280;56857;52.212;5.496;2022-10-16T13:04:47;101634.41;;;17.95;71.44
69630;BME280;56857;52.212;5.496;2022-10-16T13:10:10;101634.28;;;18.10;70.80
69630;BME280;56857;52.212;5.496;2022-10-16T13:21:14;101638.72;;;17.96;68.27
69630;BME280;56857;52.212;5.496;2022-10-16T13:23:58;101633.56;;;17.88;68.15
69630;BME280;56857;52.212;5.496;2022-10-16T13:26:33;101644.25;;;17.81;68.10
69630;BME280;56857;52.212;5.496;2022-10-16T13:29:01;101640.03;;;17.72;67.84
69630;BME280;56857;52.212;5.496;2022-10-16T13:31:28;101641.22;;;17.63;68.40
69630;BME280;56857;52.212;5.496;2022-10-16T13:33:56;101652.91;;;17.55;69.42
69630;BME280;56857;52.212;5.496;2022-10-16T13:36:34;101646.50;;;17.50;70.01
69630;BME280;56857;52.212;5.496;2022-10-16T13:41:37;101654.72;;;17.48;69.11
69630;BME280;56857;52.212;5.496;2022-10-16T13:44:03;101658.38;;;17.41;69.66
69630;BME280;56857;52.212;5.496;2022-10-16T13:46:29;101668.00;;;17.35;69.86
69630;BME280;56857;52.212;5.496;2022-10-16T13:49:01;101661.56;;;17.29;70.23
69630;BME280;56857;52.212;5.496;2022-10-16T13:51:27;101660.47;;;17.24;69.78
69630;BME280;56857;52.212;5.496;2022-10-16T13:53:54;101653.00;;;17.12;69.23
69630;BME280;56857;52.212;5.496;2022-10-16T13:56:22;101662.78;;;17.05;69.55
69630;BME280;56857;52.212;5.496;2022-10-16T13:59:01;101660.25;;;16.97;69.35
69630;BME280;56857;52.212;5.496;2022-10-16T14:01:32;101668.03;;;16.92;69.78
69630;BME280;56857;52.212;5.496;2022-10-16T14:04:04;101669.63;;;16.86;70.53
69630;BME280;56857;52.212;5.496;2022-10-16T14:06:31;101670.19;;;16.82;70.53
69630;BME280;56857;52.212;5.496;2022-10-16T14:09:07;101672.44;;;16.78;70.20